Terminal Aerodrome Forecast
Issued by NWS

Home | Current Version | Previous Version | Text Only | Print | Product List | Glossary On
Versions: 1 2 3 4 5 6 7 8 9 10 11 12 13
000
FTUS45 KVEF 022300
TAFVGT
TAF
KVGT 022320Z 0300/0324 15013G20KT P6SM SKC
     FM030300 19008KT P6SM SKC
     FM030900 VRB05KT P6SM SKC
     FM031500 14008KT P6SM SKC
     FM032200 19012G18KT P6SM SKC=

USA.gov is the U.S. government's official web portal to all federal, state and local government web resources and services.